This is the latest recevied weather packets stored in our database for station/object SP4MAZ-13. If no packets are shown the sender has not sent any weather packets the latest 10 day(s).
| Time | Temp. | Humidity | Pressure | Rain* | Wind** | Luminosity | Snow |
|---|---|---|---|---|---|---|---|
| 1777983793 | 18.33° C | 72% | 2147.4 hPa | - | - | - | - |
| 1777983490 | 18.33° C | 70% | 2147.4 hPa | - | - | - | - |
| 1777983187 | 17.78° C | 73% | 2147.4 hPa | - | - | - | - |
| 1777982883 | 17.22° C | 79% | 2147.4 hPa | - | - | - | - |
| 1777982580 | 16.67° C | 84% | 2147.4 hPa | - | - | - | - |
| 1777982276 | 16.67° C | 81% | 2147.4 hPa | - | - | - | - |
| 1777981973 | 17.78° C | 74% | 2147.4 hPa | - | - | - | - |
| 1777981669 | 16.67° C | 82% | 2147.4 hPa | - | - | - | - |
| 1777981366 | 15.56° C | 86% | 2147.4 hPa | - | - | - | - |
| 1777981064 | 16.11° C | 82% | 2147.4 hPa | - | - | - | - |
| 1777980761 | 16.67° C | 76% | 2147.4 hPa | - | - | - | - |
| 1777980458 | 17.22° C | 72% | 2147.4 hPa | - | - | - | - |
| 1777980157 | 17.22° C | 71% | 2147.4 hPa | - | - | - | - |
| 1777979853 | 17.78° C | 68% | 2147.4 hPa | - | - | - | - |
| 1777979550 | 18.33° C | 63% | 2147.4 hPa | - | - | - | - |
| 1777979247 | 18.33° C | 66% | 2147.4 hPa | - | - | - | - |
| 1777978943 | 18.33° C | 65% | 2147.4 hPa | - | - | - | - |
| 1777978639 | 17.78° C | 67% | 2147.4 hPa | - | - | - | - |
| 1777978336 | 18.33° C | 62% | 2147.4 hPa | - | - | - | - |
| 1777978032 | 17.78° C | 65% | 2147.4 hPa | - | - | - | - |
| 1777977729 | 18.33° C | 63% | 2147.4 hPa | - | - | - | - |
| 1777977426 | 17.78° C | 67% | 2147.4 hPa | - | - | - | - |
| 1777977122 | 17.78° C | 67% | 2147.4 hPa | - | - | - | - |
| 1777976819 | 18.33° C | 67% | 2147.4 hPa | - | - | - | - |
| 1777976515 | 18.89° C | 63% | 2147.4 hPa | - | - | - | - |
* Rain since midnight (hover to see other rain measurements)
** Current wind speed in m/s (hover to see current wind gust speed)